Time;durP1;ratioP1;P1;durP2;ratioP2;P2;SDS_P1;SDS_P2;PMS_P1;PMS_P2;Temp;Humidity;BMP_temperature;BMP_pressure;BME280_temperature;BME280_humidity;BME280_pressure;Samples;Min_cycle;Max_cycle;Signal;HPM_P1;HPM_P2
2022/02/18 00:00:54;;;;;;;26.77;17.33;;;;;;;5.09;100.00;98818.25;5091481;28;20072;-94
2022/02/18 00:03:20;;;;;;;25.23;15.48;;;;;;;5.12;100.00;98812.97;5091426;28;20139;-94
2022/02/18 00:05:47;;;;;;;29.63;17.38;;;;;;;5.12;100.00;98814.75;5091156;28;20102;-95
2022/02/18 00:08:51;;;;;;;27.50;17.00;;;;;;;5.06;100.00;98813.00;5091143;28;20048;-94
2022/02/18 00:11:19;;;;;;;28.63;15.88;;;;;;;5.17;100.00;98834.03;5029723;28;20042;-96
2022/02/18 00:13:45;;;;;;;27.48;17.60;;;;;;;5.10;100.00;98817.38;5080117;28;20036;-94
2022/02/18 00:20:14;;;;;;;27.65;16.15;;;;;;;5.14;100.00;98839.34;4987142;28;20511;-96
2022/02/18 00:22:40;;;;;;;27.92;16.38;;;;;;;4.98;100.00;98816.56;5034242;28;20060;-94
2022/02/18 00:25:08;;;;;;;28.08;16.05;;;;;;;5.00;100.00;98823.56;5050246;28;20553;-95
2022/02/18 00:27:36;;;;;;;24.65;15.63;;;;;;;4.98;100.00;98822.69;5049207;28;20073;-96
2022/02/18 00:30:02;;;;;;;26.83;16.30;;;;;;;4.82;100.00;98803.44;5048826;28;20095;-95
2022/02/18 00:32:28;;;;;;;25.40;15.57;;;;;;;4.89;100.00;98813.06;5038448;28;20081;-95
2022/02/18 00:34:54;;;;;;;24.77;16.55;;;;;;;4.80;100.00;98793.78;5035795;28;20061;-95
2022/02/18 00:37:21;;;;;;;26.75;16.50;;;;;;;4.80;100.00;98794.66;5035415;28;20061;-95
2022/02/18 00:39:49;;;;;;;26.30;16.20;;;;;;;4.85;100.00;98813.94;5035472;28;20592;-95
2022/02/18 00:42:15;;;;;;;29.97;16.60;;;;;;;4.83;100.00;98801.66;5035502;28;20450;-95
2022/02/18 00:44:43;;;;;;;23.30;16.40;;;;;;;4.85;100.00;98810.44;5035338;28;20052;-94
2022/02/18 00:47:10;;;;;;;26.50;16.73;;;;;;;4.94;100.00;98820.94;5035866;28;20072;-96
2022/02/18 00:49:35;;;;;;;29.15;17.55;;;;;;;4.78;100.00;98795.56;5035415;28;20087;-96
2022/02/18 00:52:01;;;;;;;26.55;16.55;;;;;;;4.79;100.00;98808.69;5036023;28;20534;-95
2022/02/18 00:54:27;;;;;;;25.90;16.25;;;;;;;4.83;100.00;98822.75;5076730;28;20049;-94
2022/02/18 00:56:54;;;;;;;27.70;16.48;;;;;;;4.69;100.00;98805.22;5076558;28;20055;-94
2022/02/18 00:59:20;;;;;;;29.70;17.33;;;;;;;4.73;100.00;98812.25;5076580;28;20131;-94
2022/02/18 01:01:48;;;;;;;23.42;15.93;;;;;;;4.71;100.00;98805.22;5076685;28;20051;-96
2022/02/18 01:04:14;;;;;;;25.83;16.02;;;;;;;4.77;100.00;98807.84;5076513;28;20044;-96
2022/02/18 01:06:42;;;;;;;26.33;16.98;;;;;;;4.89;100.00;98828.88;5076471;28;20098;-94
2022/02/18 01:09:09;;;;;;;30.35;17.90;;;;;;;4.78;100.00;98808.72;5076410;28;20036;-94
2022/02/18 01:11:35;;;;;;;26.63;17.85;;;;;;;4.80;100.00;98807.84;5076339;28;20132;-95
2022/02/18 01:14:01;;;;;;;27.55;17.00;;;;;;;4.66;100.00;98794.72;5076407;28;20080;-94
2022/02/18 01:16:30;;;;;;;27.38;16.33;;;;;;;4.74;100.00;98821.88;5076292;28;20150;-95
2022/02/18 01:18:59;;;;;;;25.93;17.30;;;;;;;4.58;100.00;98800.88;5076248;28;20100;-96
2022/02/18 01:21:26;;;;;;;25.73;16.55;;;;;;;4.62;100.00;98821.94;5075870;28;20502;-94
2022/02/18 01:23:52;;;;;;;24.83;16.75;;;;;;;4.62;100.00;98808.78;5076100;28;20448;-95
2022/02/18 01:26:18;;;;;;;29.00;17.08;;;;;;;4.57;100.00;98807.88;5076132;28;20170;-95
2022/02/18 01:28:44;;;;;;;27.30;15.98;;;;;;;4.65;100.00;98810.50;5075975;28;20040;-94
2022/02/18 01:31:11;;;;;;;24.10;14.82;;;;;;;4.66;100.00;98831.59;5076162;28;20076;-95
2022/02/18 01:33:37;;;;;;;26.67;16.20;;;;;;;4.50;100.00;98811.41;5075968;28;20164;-94
2022/02/18 01:36:04;;;;;;;26.23;15.77;;;;;;;4.40;100.00;98796.50;5076054;28;20053;-94
2022/02/18 01:38:30;;;;;;;27.73;16.20;;;;;;;4.39;100.00;98806.19;5076191;28;20486;-94
2022/02/18 01:40:57;;;;;;;27.17;16.33;;;;;;;4.32;100.00;98794.78;5075674;28;20040;-94
2022/02/18 01:43:23;;;;;;;29.65;16.42;;;;;;;4.27;100.00;98791.28;5074821;28;20049;-93
2022/02/18 01:45:48;;;;;;;27.38;16.63;;;;;;;4.33;100.00;98801.78;5075746;28;20036;-94
2022/02/18 01:48:15;;;;;;;24.70;16.00;;;;;;;4.46;100.00;98826.34;5075955;28;20056;-93
2022/02/18 01:50:42;;;;;;;23.98;14.90;;;;;;;4.21;100.00;98801.81;5076003;28;20076;-94
2022/02/18 01:53:12;;;;;;;26.92;15.63;;;;;;;4.23;100.00;98810.59;5075693;28;20080;-96
2022/02/18 01:55:37;;;;;;;;;;;;;;;4.41;100.00;98841.28;5076309;28;20098;-94
2022/02/18 01:58:03;;;;;;;22.38;13.68;;;;;;;4.27;100.00;98822.88;5075781;28;19920;-95
2022/02/18 02:00:32;;;;;;;23.40;14.68;;;;;;;4.26;100.00;98823.75;5075846;28;20547;-94
2022/02/18 02:02:59;;;;;;;23.80;15.20;;;;;;;4.15;100.00;98800.94;5075952;28;20041;-95
2022/02/18 02:05:25;;;;;;;24.05;14.77;;;;;;;4.15;100.00;98807.09;5075546;28;20401;-93
2022/02/18 02:07:51;;;;;;;24.00;14.07;;;;;;;4.26;100.00;98821.09;5075554;28;20468;-95
2022/02/18 02:10:19;;;;;;;24.20;15.50;;;;;;;4.31;100.00;98834.25;5075604;28;20043;-95
2022/02/18 02:12:50;;;;;;;22.13;14.27;;;;;;;4.19;100.00;98814.09;5075262;28;20048;-94
2022/02/18 02:15:17;;;;;;;25.98;15.48;;;;;;;4.16;100.00;98819.34;5075446;28;20041;-94
2022/02/18 02:17:43;;;;;;;23.63;14.52;;;;;;;4.18;100.00;98830.75;5075250;28;20056;-94
2022/02/18 02:20:11;;;;;;;26.33;15.35;;;;;;;4.05;100.00;98811.47;5074808;28;20049;-95
2022/02/18 02:22:39;;;;;;;23.77;15.20;;;;;;;3.96;100.00;98800.94;5075352;28;20037;-94
2022/02/18 02:25:07;;;;;;;29.80;14.90;;;;;;;4.00;100.00;98807.97;5075158;28;20064;-94
2022/02/18 02:27:33;;;;;;;22.55;15.00;;;;;;;3.88;100.00;98803.59;5075090;28;20266;-95
2022/02/18 02:29:59;;;;;;;25.98;15.02;;;;;;;4.00;100.00;98822.88;5074995;28;20055;-94
2022/02/18 02:32:25;;;;;;;23.67;15.20;;;;;;;3.89;100.00;98809.72;5074886;28;20044;-95
2022/02/18 02:34:51;;;;;;;27.75;15.65;;;;;;;4.02;100.00;98832.53;5074797;28;20048;-96
2022/02/18 02:37:18;;;;;;;27.90;16.13;;;;;;;3.89;100.00;98828.13;5074968;28;20076;-95
2022/02/18 02:39:45;;;;;;;27.40;16.17;;;;;;;3.79;100.00;98816.72;5074774;28;20062;-94
2022/02/18 02:42:14;;;;;;;24.20;15.75;;;;;;;3.68;100.00;98808.81;5075077;28;20056;-94
2022/02/18 02:44:40;;;;;;;26.30;14.68;;;;;;;3.85;100.00;98837.78;5074734;28;20428;-95
2022/02/18 02:47:06;;;;;;;26.08;15.60;;;;;;;3.87;100.00;98851.81;5074766;28;20052;-95
2022/02/18 02:49:33;;;;;;;25.27;16.02;;;;;;;3.82;100.00;98837.78;5074615;28;20386;-95
2022/02/18 02:51:59;;;;;;;27.17;16.60;;;;;;;3.83;100.00;98844.78;5074780;28;20401;-95
2022/02/18 02:54:26;;;;;;;29.17;17.40;;;;;;;3.98;100.00;98867.59;5074264;28;20517;-95
2022/02/18 02:56:55;;;;;;;27.50;16.27;;;;;;;4.00;100.00;98865.84;5075068;28;20119;-95
2022/02/18 02:59:20;;;;;;;28.52;16.25;;;;;;;3.98;100.00;98861.47;5074749;28;20071;-95
2022/02/18 03:01:46;;;;;;;29.30;16.80;;;;;;;3.98;100.00;98867.59;5074656;28;20045;-95
2022/02/18 03:04:15;;;;;;;25.38;16.02;;;;;;;3.74;100.00;98839.50;5074512;28;20385;-95
2022/02/18 03:06:41;;;;;;;24.52;15.73;;;;;;;3.66;100.00;98838.63;5074658;28;20516;-94
2022/02/18 03:09:10;;;;;;;28.48;16.98;;;;;;;3.69;100.00;98862.31;5074564;28;20048;-94
2022/02/18 03:11:36;;;;;;;24.05;15.40;;;;;;;3.70;100.00;98859.66;5074553;28;20509;-95
2022/02/18 03:14:04;;;;;;;24.83;15.43;;;;;;;3.58;100.00;98845.59;5074704;28;20036;-96
2022/02/18 03:16:30;;;;;;;30.67;17.25;;;;;;;3.65;100.00;98868.44;5074510;28;20044;-95
2022/02/18 03:18:56;;;;;;;29.70;16.73;;;;;;;3.60;100.00;98871.06;5074637;28;20067;-95
2022/02/18 03:21:22;;;;;;;28.42;15.73;;;;;;;3.61;100.00;98875.44;5074115;28;20040;-95
2022/02/18 03:23:48;;;;;;;24.77;15.23;;;;;;;3.47;100.00;98853.47;5074712;28;20044;-94
2022/02/18 03:26:15;;;;;;;27.42;15.15;;;;;;;3.50;100.00;98856.13;5074396;28;20048;-95
2022/02/18 03:28:42;;;;;;;26.55;16.05;;;;;;;3.51;100.00;98873.63;5074493;28;20055;-95
2022/02/18 03:31:09;;;;;;;27.65;16.30;;;;;;;3.46;100.00;98857.00;5074362;28;20037;-95
2022/02/18 03:33:37;;;;;;;28.55;17.45;;;;;;;3.52;100.00;98861.41;5074243;28;20044;-95
2022/02/18 03:36:04;;;;;;;28.95;17.58;;;;;;;3.52;100.00;98845.63;5074491;28;20053;-95
2022/02/18 03:38:29;;;;;;;30.17;16.85;;;;;;;3.56;100.00;98853.50;5074549;28;20098;-96
2022/02/18 03:40:55;;;;;;;27.17;16.30;;;;;;;3.60;100.00;98857.91;5074231;28;20041;-94
2022/02/18 03:43:21;;;;;;;27.67;16.95;;;;;;;3.65;100.00;98879.81;5074179;28;20486;-94
2022/02/18 03:45:47;;;;;;;27.42;16.42;;;;;;;3.38;100.00;98854.31;5074703;28;20041;-95
2022/02/18 03:48:14;;;;;;;27.08;15.77;;;;;;;3.55;100.00;98875.41;5074111;28;20045;-95
2022/02/18 03:50:41;;;;;;;25.52;15.15;;;;;;;3.63;100.00;98883.34;5074533;28;20171;-95
2022/02/18 03:53:06;;;;;;;26.08;15.82;;;;;;;3.55;100.00;98864.03;5073973;28;20055;-95
2022/02/18 03:55:32;;;;;;;25.33;14.70;;;;;;;3.57;100.00;98859.66;5074446;28;20045;-95
2022/02/18 03:57:58;;;;;;;24.80;14.30;;;;;;;3.54;100.00;98854.41;5074142;28;20052;-95
2022/02/18 04:00:24;;;;;;;26.25;15.93;;;;;;;3.66;100.00;98870.19;5074187;28;20072;-95
2022/02/18 04:02:50;;;;;;;26.27;15.27;;;;;;;3.62;100.00;98865.78;5074258;28;20430;-95
2022/02/18 04:05:18;;;;;;;26.13;15.77;;;;;;;3.66;100.00;98859.66;5074226;28;20066;-94
2022/02/18 04:07:43;;;;;;;25.73;15.80;;;;;;;3.83;100.00;98893.88;5076504;28;20052;-95
2022/02/18 04:10:09;;;;;;;28.92;15.90;;;;;;;3.65;100.00;98877.19;5077850;28;20048;-95
2022/02/18 04:12:35;;;;;;;22.35;14.73;;;;;;;3.70;100.00;98877.19;5077710;28;20040;-95
2022/02/18 04:15:02;;;;;;;27.08;14.50;;;;;;;3.66;100.00;98867.53;5077741;28;20052;-94
2022/02/18 04:17:28;;;;;;;26.50;15.55;;;;;;;3.62;100.00;98865.78;5077790;28;20406;-96
2022/02/18 04:19:55;;;;;;;25.23;14.65;;;;;;;3.54;100.00;98876.28;5077426;28;20106;-96
2022/02/18 04:22:22;;;;;;;24.15;14.52;;;;;;;3.46;100.00;98870.13;5077750;28;20044;-95
2022/02/18 04:24:48;;;;;;;29.17;15.02;;;;;;;3.42;100.00;98882.38;5077450;28;20115;-95
2022/02/18 04:27:14;;;;;;;27.60;16.10;;;;;;;3.31;100.00;98870.94;5077333;28;20477;-95
2022/02/18 04:29:40;;;;;;;26.45;15.70;;;;;;;3.36;100.00;98882.38;5077775;28;20041;-96
2022/02/18 04:32:07;;;;;;;23.45;16.00;;;;;;;3.35;100.00;98877.09;5077428;28;20135;-94
2022/02/18 04:34:33;;;;;;;27.25;17.65;;;;;;;3.21;100.00;98851.66;5077226;28;20059;-94
2022/02/18 04:36:58;;;;;;;25.13;16.55;;;;;;;3.26;100.00;98852.53;5077445;28;20048;-94
2022/02/18 04:39:26;;;;;;;28.58;17.95;;;;;;;3.19;100.00;98849.88;5077229;28;20048;-94
2022/02/18 04:41:52;;;;;;;35.33;18.98;;;;;;;3.24;100.00;98859.53;5077130;28;20470;-95
2022/02/18 04:44:18;;;;;;;32.55;20.60;;;;;;;3.16;100.00;98853.38;5077586;28;20047;-95
2022/02/18 04:46:44;;;;;;;35.40;21.10;;;;;;;3.39;100.00;98889.41;5076986;28;20051;-95
2022/02/18 04:49:10;;;;;;;37.75;20.83;;;;;;;3.25;100.00;98879.72;5077304;28;20048;-94
2022/02/18 04:51:37;;;;;;;34.58;20.92;;;;;;;3.19;100.00;98877.06;5077602;28;20047;-95
2022/02/18 04:54:03;;;;;;;35.58;21.70;;;;;;;3.26;100.00;98878.81;5077443;28;20094;-95
2022/02/18 04:56:31;;;;;;;35.50;21.17;;;;;;;3.51;100.00;98902.56;5077268;28;20044;-94
2022/02/18 04:58:57;;;;;;;32.45;20.23;;;;;;;3.54;100.00;98872.81;5076940;28;20428;-95
2022/02/18 05:01:23;;;;;;;39.00;22.15;;;;;;;3.55;100.00;98854.38;5076943;28;20098;-95
2022/02/18 05:03:50;;;;;;;35.70;20.75;;;;;;;3.72;100.00;98880.72;5076901;28;20063;-95
2022/02/18 05:06:16;;;;;;;36.60;20.75;;;;;;;3.80;100.00;98863.19;5077088;28;20496;-95
2022/02/18 05:08:42;;;;;;;36.33;21.33;;;;;;;3.76;100.00;98855.31;5077008;28;20048;-95
2022/02/18 05:11:09;;;;;;;32.25;20.45;;;;;;;3.81;100.00;98864.94;5077114;28;20051;-94
2022/02/18 05:13:36;;;;;;;36.30;21.58;;;;;;;3.83;100.00;98868.44;5076718;28;20056;-95
2022/02/18 05:16:03;;;;;;;33.38;20.45;;;;;;;3.81;100.00;98866.69;5076576;28;20048;-94
2022/02/18 05:18:29;;;;;;;32.60;19.20;;;;;;;3.79;100.00;98863.19;5076403;28;20047;-94
2022/02/18 05:20:55;;;;;;;30.85;20.98;;;;;;;3.78;100.00;98870.22;5076171;28;20048;-95
2022/02/18 05:23:21;;;;;;;35.90;21.38;;;;;;;3.72;100.00;98858.81;5076322;28;20057;-95
2022/02/18 05:25:46;;;;;;;30.23;20.08;;;;;;;3.85;100.00;98886.88;5076502;28;20048;-95
2022/02/18 05:28:14;;;;;;;35.60;21.65;;;;;;;3.77;100.00;98894.75;5076303;28;20045;-95
2022/02/18 05:30:42;;;;;;;33.88;20.95;;;;;;;3.54;100.00;98871.03;5076760;28;20040;-95
2022/02/18 05:33:08;;;;;;;36.35;20.90;;;;;;;3.63;100.00;98878.06;5076277;28;20056;-94
2022/02/18 05:35:33;;;;;;;34.22;20.77;;;;;;;3.72;100.00;98882.47;5076076;28;20041;-95
2022/02/18 05:37:59;;;;;;;33.85;19.98;;;;;;;3.70;100.00;98879.84;5075996;28;20056;-95
2022/02/18 05:40:25;;;;;;;30.95;20.15;;;;;;;3.81;100.00;98903.53;5075821;28;20037;-94
2022/02/18 05:42:51;;;;;;;35.00;21.15;;;;;;;3.75;100.00;98901.75;5076071;28;20083;-94
2022/02/18 05:45:17;;;;;;;32.47;20.65;;;;;;;3.63;100.00;98886.84;5075912;28;20071;-95
2022/02/18 05:47:44;;;;;;;38.88;23.00;;;;;;;3.76;100.00;98882.47;5075866;28;20040;-94
2022/02/18 05:50:11;;;;;;;35.97;22.52;;;;;;;3.65;100.00;98887.72;5076090;28;20062;-94
2022/02/18 05:52:37;;;;;;;35.60;20.90;;;;;;;3.54;100.00;98889.44;5076887;28;20045;-95
2022/02/18 05:55:04;;;;;;;34.25;21.55;;;;;;;3.39;100.00;98885.00;5077542;28;20071;-95
2022/02/18 05:57:31;;;;;;;35.42;21.25;;;;;;;3.26;100.00;98888.47;5079452;28;20054;-96
2022/02/18 05:59:57;;;;;;;33.20;20.63;;;;;;;3.25;100.00;98905.09;5077515;28;20055;-95
2022/02/18 06:02:23;;;;;;;35.17;21.38;;;;;;;3.11;100.00;98904.16;5078673;28;20041;-95
2022/02/18 06:04:50;;;;;;;32.88;20.45;;;;;;;3.04;100.00;98900.63;5076926;28;20037;-95
2022/02/18 06:07:16;;;;;;;36.70;21.25;;;;;;;3.16;100.00;98931.34;5075773;28;20040;-93
2022/02/18 06:09:42;;;;;;;33.95;21.20;;;;;;;3.15;100.00;98940.97;5075969;28;20055;-96
2022/02/18 06:12:09;;;;;;;33.70;20.10;;;;;;;2.98;100.00;98919.84;5076116;28;20127;-92
2022/02/18 06:14:35;;;;;;;31.38;20.25;;;;;;;3.01;100.00;98932.13;5075988;28;20524;-94
2022/02/18 06:17:05;;;;;;;30.30;19.92;;;;;;;2.93;100.00;98934.72;5074924;28;20044;-95
2022/02/18 06:19:31;;;;;;;34.65;20.08;;;;;;;2.93;100.00;98932.09;5075304;28;20043;-93
2022/02/18 06:21:58;;;;;;;34.20;18.73;;;;;;;2.93;100.00;98945.22;5075081;28;20052;-96
2022/02/18 06:24:24;;;;;;;34.50;20.95;;;;;;;3.16;100.00;98962.88;5075199;28;20537;-96
2022/02/18 06:26:50;;;;;;;32.97;21.85;;;;;;;3.06;100.00;98949.69;5075021;28;20044;-92
2022/02/18 06:29:16;;;;;;;31.15;20.48;;;;;;;2.98;100.00;98934.75;5074654;28;20048;-92
2022/02/18 06:31:43;;;;;;;32.47;20.45;;;;;;;3.20;100.00;98965.50;5075661;28;20544;-93
2022/02/18 06:34:17;;;;;;;34.28;22.20;;;;;;;3.32;100.00;98967.34;5078470;28;20047;-94
2022/02/18 06:36:51;;;;;;;38.35;22.60;;;;;;;3.22;100.00;98934.88;5081643;28;20140;-92
2022/02/18 06:39:20;;;;;;;36.70;21.08;;;;;;;3.37;100.00;98955.09;5082415;28;20047;-93
2022/02/18 06:41:47;;;;;;;42.25;22.02;;;;;;;3.35;100.00;98938.44;5076353;28;20147;-95
2022/02/18 06:44:13;;;;;;;36.88;21.77;;;;;;;3.30;100.00;98927.03;5075242;28;20044;-95
2022/02/18 06:46:39;;;;;;;35.60;22.50;;;;;;;3.35;100.00;98933.19;5075107;28;20048;-95
2022/02/18 06:49:06;;;;;;;38.35;23.40;;;;;;;3.49;100.00;98947.28;5074758;28;20074;-95
2022/02/18 06:51:32;;;;;;;36.60;23.02;;;;;;;3.55;100.00;98956.03;5075248;28;20048;-93
2022/02/18 06:53:57;;;;;;;36.47;23.27;;;;;;;3.57;100.00;98947.28;5074889;28;20060;-95
2022/02/18 06:56:25;;;;;;;36.75;21.48;;;;;;;3.64;100.00;98943.81;5078582;28;20041;-96
2022/02/18 06:58:52;;;;;;;39.28;23.13;;;;;;;3.66;100.00;98949.06;5080577;28;20134;-95
2022/02/18 07:01:18;;;;;;;32.95;22.05;;;;;;;3.74;100.00;98963.13;5076899;28;20068;-96
2022/02/18 07:03:44;;;;;;;36.60;21.95;;;;;;;3.88;100.00;98990.38;5081887;28;20104;-95
2022/02/18 07:06:10;;;;;;;42.05;22.48;;;;;;;3.73;100.00;98961.38;5084828;28;20075;-94
2022/02/18 07:08:36;;;;;;;38.47;21.63;;;;;;;3.81;100.00;98974.56;5084460;28;20092;-94
2022/02/18 07:11:02;;;;;;;46.05;22.67;;;;;;;4.00;100.00;98997.41;5078413;28;20060;-95
2022/02/18 07:13:29;;;;;;;40.75;22.65;;;;;;;3.94;100.00;98986.00;5075024;28;20048;-94
2022/02/18 07:15:55;;;;;;;39.55;21.33;;;;;;;3.95;100.00;98983.38;5076373;28;20049;-94
2022/02/18 07:18:22;;;;;;;38.28;21.95;;;;;;;4.03;100.00;98978.13;5077878;28;20067;-95
2022/02/18 07:20:48;;;;;;;40.40;22.17;;;;;;;4.12;100.00;98983.44;5077557;28;20052;-93
2022/02/18 07:23:14;;;;;;;38.90;21.38;;;;;;;4.17;100.00;98983.44;5077507;28;20074;-94
2022/02/18 07:25:40;;;;;;;36.83;22.25;;;;;;;4.35;100.00;99006.28;5077229;28;20040;-94
2022/02/18 07:28:06;;;;;;;41.05;24.75;;;;;;;4.30;100.00;98986.06;5076116;28;20045;-94
2022/02/18 07:30:33;;;;;;;43.33;25.77;;;;;;;4.37;100.00;98986.09;5078934;28;20052;-93
2022/02/18 07:32:59;;;;;;;45.60;27.17;;;;;;;4.41;100.00;98974.69;5086130;28;20045;-95
2022/02/18 07:35:32;;;;;;;39.95;25.33;;;;;;;4.52;100.00;98991.38;5084763;28;20049;-95
2022/02/18 07:37:59;;;;;;;44.42;24.13;;;;;;;4.58;100.00;98985.25;5083935;28;20041;-94
2022/02/18 07:40:25;;;;;;;41.83;23.38;;;;;;;4.87;100.00;99009.81;5075565;28;20040;-91
2022/02/18 07:42:51;;;;;;;41.60;24.67;;;;;;;4.97;100.00;99002.78;5077053;28;20432;-94
2022/02/18 07:45:16;;;;;;;38.13;23.15;;;;;;;5.02;100.00;98990.47;5077805;28;20041;-92
2022/02/18 07:47:44;;;;;;;37.05;21.65;;;;;;;5.25;100.00;98997.50;5078326;28;20049;-94
2022/02/18 07:50:10;;;;;;;40.75;22.50;;;;;;;5.27;100.00;98993.06;5078481;28;20386;-94
2022/02/18 07:52:37;;;;;;;36.75;22.20;;;;;;;5.46;99.39;99000.03;5078335;28;20048;-93
2022/02/18 07:55:03;;;;;;;35.20;21.42;;;;;;;5.60;97.69;99007.06;5078063;28;20060;-93
2022/02/18 07:57:29;;;;;;;34.95;22.58;;;;;;;5.51;97.93;98976.31;5078107;28;20040;-92
2022/02/18 07:59:55;;;;;;;41.45;21.95;;;;;;;5.71;97.89;98979.75;5078103;28;20131;-94
2022/02/18 08:02:21;;;;;;;37.28;22.08;;;;;;;5.89;96.59;98988.47;5077452;28;20489;-93
2022/02/18 08:04:48;;;;;;;37.78;22.48;;;;;;;6.08;94.83;99008.63;5077564;28;20525;-92
2022/02/18 08:07:14;;;;;;;35.03;21.45;;;;;;;6.17;95.36;98995.38;5082036;28;20044;-92
2022/02/18 08:09:40;;;;;;;35.20;21.88;;;;;;;6.30;94.92;98997.94;5077592;28;20036;-92
2022/02/18 08:12:06;;;;;;;38.97;21.60;;;;;;;6.43;93.36;98999.63;5077667;28;20090;-92
2022/02/18 08:14:32;;;;;;;33.38;21.65;;;;;;;6.64;93.36;99009.16;5077514;28;20049;-93
2022/02/18 08:16:58;;;;;;;35.28;21.25;;;;;;;6.65;92.34;98971.28;5076663;28;20401;-93
2022/02/18 08:19:24;;;;;;;34.88;21.63;;;;;;;6.83;91.62;98985.22;5077501;28;20131;-93
2022/02/18 08:21:51;;;;;;;33.65;21.35;;;;;;;6.88;90.48;98986.94;5076662;28;20044;-93
2022/02/18 08:24:18;;;;;;;36.38;21.90;;;;;;;6.88;90.07;98999.31;5077018;28;20060;-93
2022/02/18 08:26:45;;;;;;;36.58;21.92;;;;;;;6.79;90.03;98992.31;5076965;28;20143;-89
2022/02/18 08:29:11;;;;;;;35.50;22.45;;;;;;;6.77;90.32;98991.47;5077427;28;20068;-91
2022/02/18 08:31:36;;;;;;;39.78;24.63;;;;;;;6.91;90.02;99028.34;5076957;28;20037;-92
2022/02/18 08:34:03;;;;;;;42.42;25.20;;;;;;;6.91;90.81;99017.75;5077244;28;20132;-94
2022/02/18 08:36:29;;;;;;;43.78;26.02;;;;;;;7.10;90.62;99035.22;5077480;28;20119;-93
2022/02/18 08:38:57;;;;;;;46.85;29.42;;;;;;;7.15;89.57;99021.97;5077042;28;20086;-93
2022/02/18 08:41:23;;;;;;;60.42;33.80;;;;;;;7.11;88.70;99018.47;5085577;28;20139;-93
2022/02/18 08:43:49;;;;;;;72.53;37.95;;;;;;;7.32;88.80;99057.06;5076900;28;20132;-92
2022/02/18 08:46:14;;;;;;;74.28;39.13;;;;;;;7.12;88.29;99027.28;5076494;28;20486;-92
2022/02/18 08:48:41;;;;;;;89.32;43.92;;;;;;;7.22;89.76;99042.16;5076564;28;20072;-92
2022/02/18 08:51:06;;;;;;;88.13;43.85;;;;;;;7.29;89.84;99049.16;5075126;28;20064;-92
2022/02/18 08:53:32;;;;;;;94.82;41.90;;;;;;;7.25;88.88;99036.84;5076061;28;20083;-92
2022/02/18 08:56:00;;;;;;;74.28;39.03;;;;;;;7.29;90.38;99057.09;5075632;28;20048;-93
2022/02/18 08:58:27;;;;;;;73.45;34.35;;;;;;;7.21;89.89;99032.50;5076815;28;20036;-93
2022/02/18 09:00:52;;;;;;;58.35;30.10;;;;;;;7.22;88.83;99026.28;5076603;28;20047;-91
2022/02/18 09:03:18;;;;;;;49.10;25.80;;;;;;;7.11;92.44;99050.22;5076789;28;20044;-93
2022/02/18 09:05:44;;;;;;;42.50;25.60;;;;;;;6.86;91.04;99044.25;5076747;28;20048;-93
2022/02/18 09:08:10;;;;;;;47.63;25.67;;;;;;;6.93;92.85;99059.16;5076443;28;20585;-93
2022/02/18 09:10:36;;;;;;;44.83;25.35;;;;;;;7.02;94.08;99071.44;5076608;28;20520;-94
2022/02/18 09:13:03;;;;;;;47.63;27.45;;;;;;;6.91;93.14;99058.28;5076355;28;20497;-92
2022/02/18 09:15:29;;;;;;;51.58;27.55;;;;;;;6.94;94.70;99042.41;5075691;28;20048;-92
2022/02/18 09:17:55;;;;;;;45.17;26.58;;;;;;;7.11;93.10;99055.50;5076428;28;20040;-93
2022/02/18 09:20:21;;;;;;;48.13;27.30;;;;;;;6.85;94.26;99071.56;5076898;28;20571;-92
2022/02/18 09:22:47;;;;;;;45.58;25.65;;;;;;;6.90;96.29;99061.84;5076267;28;20098;-94
2022/02/18 09:25:12;;;;;;;50.83;27.35;;;;;;;7.09;95.51;99074.91;5076015;28;20040;-93
2022/02/18 09:27:38;;;;;;;51.53;27.85;;;;;;;7.02;94.57;99075.84;5076222;28;20098;-92
2022/02/18 09:30:10;;;;;;;50.10;26.52;;;;;;;7.25;95.88;99086.25;5075147;28;20048;-91
2022/02/18 09:32:36;;;;;;;49.78;28.10;;;;;;;7.40;95.08;99091.41;5086554;28;20051;-93
2022/02/18 09:35:03;;;;;;;52.28;28.13;;;;;;;7.48;94.64;99092.22;5076938;28;20048;-93
2022/02/18 09:37:29;;;;;;;55.10;28.83;;;;;;;7.23;95.07;99093.31;5075963;28;20065;-94
2022/02/18 09:39:55;;;;;;;53.33;26.70;;;;;;;7.42;96.53;99086.97;5075661;28;20044;-94
2022/02/18 09:42:21;;;;;;;51.85;28.98;;;;;;;7.66;96.28;99100.88;5075454;28;20043;-92
2022/02/18 09:44:49;;;;;;;50.47;28.70;;;;;;;7.82;96.69;99097.16;5075713;28;22324;-93
2022/02/18 09:47:17;;;;;;;53.72;28.95;;;;;;;8.06;96.59;99063.34;5073613;28;20127;-94
2022/02/18 09:49:44;;;;;;;46.42;26.73;;;;;;;8.55;93.97;99081.28;5077199;28;20044;-94
2022/02/18 09:52:11;;;;;;;43.63;25.35;;;;;;;8.87;89.77;99087.88;5076799;28;20490;-95
2022/02/18 09:54:37;;;;;;;34.20;19.92;;;;;;;8.81;85.55;99065.88;5076090;28;20131;-94
2022/02/18 09:57:04;;;;;;;28.98;16.52;;;;;;;9.28;86.09;99079.25;5077614;28;20071;-94
2022/02/18 09:59:30;;;;;;;30.52;17.55;;;;;;;9.74;84.28;99098.84;5078849;28;20051;-94
2022/02/18 10:01:56;;;;;;;30.25;18.15;;;;;;;9.89;82.48;99074.66;5077941;28;20131;-95
2022/02/18 10:04:24;;;;;;;28.55;18.20;;;;;;;10.19;80.73;99085.53;5077582;28;20055;-95
2022/02/18 10:06:50;;;;;;;28.88;16.38;;;;;;;10.32;79.59;99068.47;5078854;28;20078;-93
2022/02/18 10:09:16;;;;;;;29.20;17.25;;;;;;;10.47;78.97;99054.88;5077054;28;20115;-96
2022/02/18 10:11:52;;;;;;;31.80;19.35;;;;;;;10.75;78.94;99085.28;5078540;28;20505;-95
2022/02/18 10:14:18;;;;;;;37.38;19.00;;;;;;;10.96;79.07;99099.88;5076767;28;20048;-95
2022/02/18 10:16:44;;;;;;;31.67;18.15;;;;;;;10.82;77.37;99078.88;5076123;28;20045;-95
2022/02/18 10:19:10;;;;;;;34.90;23.13;;;;;;;10.95;78.80;99090.13;5076615;28;20565;-95
2022/02/18 10:21:39;;;;;;;41.42;22.08;;;;;;;10.76;79.05;99105.66;5076895;28;20052;-96
2022/02/18 10:24:07;;;;;;;39.38;25.02;;;;;;;10.78;80.28;99082.53;5077338;28;20063;-95
2022/02/18 10:26:37;;;;;;;42.35;24.48;;;;;;;11.00;80.01;99113.06;5077316;28;20044;-95
2022/02/18 10:29:03;;;;;;;36.15;23.27;;;;;;;11.06;79.21;99114.69;5077591;28;20048;-95
2022/02/18 10:31:29;;;;;;;35.55;22.17;;;;;;;10.83;80.01;99096.63;5079400;28;20058;-95
2022/02/18 10:34:03;;;;;;;37.03;22.10;;;;;;;10.93;79.71;99119.44;5078156;28;20044;-93
2022/02/18 10:36:40;;;;;;;34.75;22.20;;;;;;;10.83;81.56;99104.59;5076292;28;20044;-95
2022/02/18 10:39:24;;;;;;;45.58;23.85;;;;;;;10.62;81.81;99114.78;5064578;28;20040;-95
2022/02/18 10:41:51;;;;;;;46.60;24.98;;;;;;;10.74;83.64;99110.13;5075871;28;20048;-96
2022/02/18 10:44:18;;;;;;;37.42;22.90;;;;;;;10.93;82.06;99097.25;5077000;28;20051;-95
2022/02/18 10:46:45;;;;;;;46.03;21.83;;;;;;;10.94;83.02;99107.88;5077498;28;20045;-95
2022/02/18 10:49:22;;;;;;;46.53;20.63;;;;;;;10.90;83.07;99093.75;5075284;28;20049;-94
2022/02/18 10:51:50;;;;;;;34.40;18.40;;;;;;;10.67;82.72;99080.13;5077286;28;20057;-94
2022/02/18 10:54:17;;;;;;;29.30;16.80;;;;;;;10.61;83.09;99088.25;5077349;28;20047;-93
2022/02/18 10:56:43;;;;;;;35.17;18.83;;;;;;;10.54;83.83;99079.53;5076381;28;20044;-95
2022/02/18 10:59:09;;;;;;;33.30;18.15;;;;;;;10.72;83.45;99083.56;5076780;28;20107;-94
2022/02/18 11:01:44;;;;;;;31.58;15.70;;;;;;;10.94;81.90;99069.75;5076299;28;20090;-94
2022/02/18 11:04:12;;;;;;;26.73;15.18;;;;;;;11.21;80.78;99086.84;5075803;28;20048;-94
2022/02/18 11:06:37;;;;;;;26.45;14.85;;;;;;;11.29;80.94;99085.72;5079395;28;20055;-94
2022/02/18 11:09:06;;;;;;;23.63;15.23;;;;;;;11.41;79.82;99089.03;5078462;28;20493;-95
2022/02/18 11:11:34;;;;;;;27.50;15.35;;;;;;;11.29;80.74;99058.25;5071924;28;20044;-94
2022/02/18 11:14:02;;;;;;;24.13;14.70;;;;;;;11.50;80.31;99071.00;5078423;28;20048;-94
2022/02/18 11:16:31;;;;;;;24.77;14.68;;;;;;;11.30;81.12;99055.56;5079411;28;20517;-94
2022/02/18 11:18:58;;;;;;;26.73;14.25;;;;;;;11.43;80.84;99049.91;5077420;28;20056;-95
2022/02/18 11:21:27;;;;;;;28.77;15.85;;;;;;;11.63;80.18;99068.03;5069391;28;20121;-95